Terminal Aerodrome Forecast
Issued by NWS Atlanta, GA

Home | Current Version | Previous Version | Text Only | Print | Product List | Glossary On
Versions: 1 2 3 4 5 6 7 8 9 10 11 12 13 14 15 16 17 18 19 20 21 22 23 24 25 26 27 28 29 30 31 32 33 34 35 36 37 38
118
FTUS42 KFFC 010550 AAA
TAFATL
TAF AMD
KATL 010550Z 0106/0212 14006KT P6SM VCTS BKN040CB BKN080
     FM010700 14006KT P6SM VCSH BKN040 BKN080
     FM011200 21006KT P6SM BKN015
     FM011600 23009KT P6SM VCSH BKN025
     FM011800 23010KT 4SM -TSRA BKN030CB
     FM012100 23008KT P6SM VCSH OVC040
     FM020200 24005KT P6SM SCT060 BKN250=

USA.gov is the U.S. government's official web portal to all federal, state and local government web resources and services.